Time;durP1;ratioP1;P1;durP2;ratioP2;P2;SDS_P1;SDS_P2;PMS_P1;PMS_P2;Temp;Humidity;BMP_temperature;BMP_pressure;BME280_temperature;BME280_humidity;BME280_pressure;Samples;Min_cycle;Max_cycle;Signal;HPM_P1;HPM_P2
2022/11/05 00:10:13;;;;;;;12.32;7.95;;;12.10;99.90;;;;;;5005737;28;20064;-72
2022/11/05 00:18:08;;;;;;;11.32;7.97;;;12.00;99.90;;;;;;5006366;28;20516;-74
2022/11/05 00:20:34;;;;;;;9.40;6.90;;;12.00;99.90;;;;;;5006265;28;20032;-74
2022/11/05 00:26:04;;;;;;;11.25;7.72;;;11.90;99.90;;;;;;5007411;28;20025;-74
2022/11/05 00:28:31;;;;;;;11.38;7.57;;;11.90;99.90;;;;;;5007514;28;20033;-74
2022/11/05 00:31:02;;;;;;;10.32;7.47;;;11.90;99.90;;;;;;5006077;28;20040;-73
2022/11/05 00:33:28;;;;;;;11.43;8.35;;;11.80;99.90;;;;;;5005832;28;20030;-73
2022/11/05 00:35:53;;;;;;;14.35;8.13;;;11.80;99.90;;;;;;5007503;28;20065;-72
2022/11/05 00:38:19;;;;;;;10.95;7.68;;;11.80;99.90;;;;;;5004672;28;20038;-73
2022/11/05 00:40:45;;;;;;;13.20;8.68;;;11.80;99.90;;;;;;5021246;28;20061;-73
2022/11/05 00:45:55;;;;;;;14.75;7.75;;;11.80;99.90;;;;;;5007378;28;20081;-73
2022/11/05 00:51:07;;;;;;;11.25;7.95;;;11.90;99.90;;;;;;5006063;28;20061;-73
2022/11/05 00:53:33;;;;;;;12.00;6.93;;;11.90;99.90;;;;;;5005616;28;20053;-73
2022/11/05 00:55:59;;;;;;;11.45;7.38;;;11.90;99.90;;;;;;5006579;28;20026;-73
2022/11/05 00:58:27;;;;;;;11.57;7.32;;;11.90;99.90;;;;;;5005366;28;20034;-73
2022/11/05 01:00:58;;;;;;;11.35;7.35;;;11.90;99.90;;;;;;5005130;28;20045;-72
2022/11/05 01:03:31;;;;;;;9.85;6.72;;;11.90;99.90;;;;;;5005811;28;20026;-72
2022/11/05 01:06:10;;;;;;;12.27;6.88;;;11.90;99.90;;;;;;5005978;28;20040;-73
2022/11/05 01:08:36;;;;;;;7.75;6.65;;;11.90;99.90;;;;;;5007219;28;20852;-73
2022/11/05 01:11:31;;;;;;;8.30;5.88;;;11.90;99.90;;;;;;5005552;28;20064;-72
2022/11/05 01:14:06;;;;;;;9.15;6.43;;;11.90;99.90;;;;;;5008607;28;20076;-73
2022/11/05 01:16:32;;;;;;;;;;;11.90;99.90;;;;;;5010718;28;20034;-72
2022/11/05 01:18:57;;;;;;;15.30;6.80;;;12.00;99.90;;;;;;5018129;28;19916;-73
2022/11/05 01:21:23;;;;;;;10.02;6.53;;;11.90;99.90;;;;;;5020934;28;20072;-73
2022/11/05 01:23:50;;;;;;;10.80;6.63;;;11.90;99.90;;;;;;5006996;28;20030;-73
2022/11/05 01:26:15;;;;;;;9.80;6.18;;;12.00;99.90;;;;;;5009272;28;20026;-73
2022/11/05 01:28:41;;;;;;;9.30;6.47;;;12.00;99.90;;;;;;5008190;28;21554;-73
2022/11/05 01:31:07;;;;;;;10.73;6.47;;;12.00;99.90;;;;;;5007813;28;20084;-72
2022/11/05 01:33:32;;;;;;;8.98;6.05;;;12.10;99.90;;;;;;5007693;28;20127;-73
2022/11/05 01:35:58;;;;;;;9.70;5.90;;;12.10;99.90;;;;;;5007475;28;20448;-73
2022/11/05 01:38:24;;;;;;;9.63;6.03;;;12.10;99.90;;;;;;5006938;28;20488;-73
2022/11/05 01:40:52;;;;;;;9.20;5.78;;;12.10;99.90;;;;;;5005356;28;21322;-72
2022/11/05 01:43:20;;;;;;;8.68;6.03;;;12.10;99.90;;;;;;5004902;28;20055;-72
2022/11/05 01:45:51;;;;;;;10.45;6.40;;;12.10;99.90;;;;;;5004301;28;20017;-72
2022/11/05 01:48:21;;;;;;;9.02;5.28;;;12.00;99.90;;;;;;5005327;28;20196;-71
2022/11/05 01:51:13;;;;;;;9.10;5.95;;;11.90;99.90;;;;;;5005155;28;20041;-74
2022/11/05 01:53:42;;;;;;;10.30;5.43;;;11.90;99.90;;;;;;5002346;28;20046;-73
2022/11/05 01:56:08;;;;;;;9.98;5.40;;;11.90;99.90;;;;;;5005720;28;20030;-73
2022/11/05 01:58:42;;;;;;;8.13;5.57;;;11.90;99.90;;;;;;5020602;28;20030;-73
2022/11/05 02:01:10;;;;;;;8.98;5.45;;;11.90;99.90;;;;;;5006255;28;20042;-73
2022/11/05 02:03:36;;;;;;;8.55;5.50;;;11.80;99.90;;;;;;5004879;28;20031;-72
2022/11/05 02:06:03;;;;;;;7.38;5.47;;;11.80;99.90;;;;;;5003499;28;20037;-72
2022/11/05 02:08:44;;;;;;;10.20;6.25;;;11.80;99.90;;;;;;5004406;28;20056;-73
2022/11/05 02:11:13;;;;;;;10.20;5.95;;;11.80;99.90;;;;;;5005719;28;20042;-73
2022/11/05 02:13:39;;;;;;;14.43;6.93;;;11.80;99.90;;;;;;5005270;28;20105;-73
2022/11/05 02:16:31;;;;;;;10.40;5.82;;;11.80;99.90;;;;;;5008528;28;20068;-73
2022/11/05 02:19:26;;;;;;;7.93;6.03;;;11.80;99.90;;;;;;4995831;28;20037;-72
2022/11/05 02:22:13;;;;;;;8.73;5.80;;;11.80;99.90;;;;;;5006748;28;20041;-72
2022/11/05 02:25:01;;;;;;;11.05;5.65;;;11.80;99.90;;;;;;5004905;28;20026;-72
2022/11/05 02:28:09;;;;;;;8.65;5.57;;;11.80;99.90;;;;;;5008784;28;20161;-73
2022/11/05 02:30:40;;;;;;;10.10;6.00;;;11.70;99.90;;;;;;5006388;28;20037;-72
2022/11/05 02:33:20;;;;;;;7.50;5.80;;;11.70;99.90;;;;;;5005690;28;21452;-73
2022/11/05 02:35:48;;;;;;;8.32;6.07;;;11.70;99.90;;;;;;5007588;28;20096;-72
2022/11/05 02:38:31;;;;;;;12.65;7.32;;;11.70;99.90;;;;;;5005854;28;20030;-72
2022/11/05 02:41:07;;;;;;;10.57;6.20;;;11.70;99.90;;;;;;5004965;28;20481;-72
2022/11/05 02:43:45;;;;;;;9.25;6.53;;;11.70;99.90;;;;;;5003373;28;20148;-72
2022/11/05 02:46:36;;;;;;;9.48;6.57;;;11.60;99.90;;;;;;5003109;28;20041;-72
2022/11/05 02:49:12;;;;;;;9.77;5.75;;;11.70;99.90;;;;;;5003874;28;20040;-72
2022/11/05 02:51:57;;;;;;;9.63;6.05;;;11.70;99.90;;;;;;5005804;28;20042;-71
2022/11/05 02:54:30;;;;;;;8.20;6.38;;;11.60;99.90;;;;;;5007410;28;20124;-72
2022/11/05 02:56:58;;;;;;;12.93;6.60;;;11.60;99.90;;;;;;5009314;28;20030;-72
2022/11/05 02:59:24;;;;;;;11.32;6.93;;;11.60;99.90;;;;;;5008548;28;20548;-71
2022/11/05 03:01:51;;;;;;;12.25;6.78;;;11.60;99.90;;;;;;5004780;28;21433;-72
2022/11/05 03:04:20;;;;;;;10.88;7.03;;;11.50;99.90;;;;;;5008785;28;20094;-71
2022/11/05 03:07:11;;;;;;;11.82;6.70;;;11.50;99.90;;;;;;5005578;28;20359;-71
2022/11/05 03:09:58;;;;;;;11.02;6.93;;;11.40;99.90;;;;;;5006675;28;20100;-72
2022/11/05 03:12:48;;;;;;;10.80;7.10;;;11.40;99.90;;;;;;5007333;28;20050;-72
2022/11/05 03:15:53;;;;;;;9.40;6.00;;;11.40;99.90;;;;;;5003807;28;20463;-72
2022/11/05 03:18:44;;;;;;;10.75;5.97;;;11.40;99.90;;;;;;5004770;28;20064;-73
2022/11/05 03:21:32;;;;;;;11.50;6.53;;;11.40;99.90;;;;;;4999649;28;20950;-73
2022/11/05 03:24:02;;;;;;;9.15;6.38;;;11.40;99.90;;;;;;5004209;28;20452;-74
2022/11/05 03:26:32;;;;;;;10.23;7.30;;;11.30;99.90;;;;;;5003856;28;20944;-73
2022/11/05 03:29:05;;;;;;;12.10;6.18;;;11.30;99.90;;;;;;5005327;28;20034;-74
2022/11/05 03:31:33;;;;;;;12.50;6.28;;;11.30;99.90;;;;;;5003910;28;21568;-73
2022/11/05 03:34:04;;;;;;;12.45;6.65;;;11.20;99.90;;;;;;5007330;28;20026;-74
2022/11/05 03:36:40;;;;;;;9.27;6.20;;;11.20;99.90;;;;;;5007346;28;20042;-73
2022/11/05 03:39:11;;;;;;;9.73;7.00;;;11.20;99.90;;;;;;5007902;28;20022;-74
2022/11/05 03:41:42;;;;;;;8.45;6.28;;;11.10;99.90;;;;;;5006763;28;20438;-73
2022/11/05 03:44:11;;;;;;;15.50;6.97;;;11.10;99.90;;;;;;5006129;28;20054;-73
2022/11/05 03:46:43;;;;;;;13.38;6.07;;;11.10;99.90;;;;;;5024491;28;20090;-74
2022/11/05 03:49:16;;;;;;;9.80;6.18;;;11.10;99.90;;;;;;5017611;28;20038;-74
2022/11/05 03:51:53;;;;;;;13.15;6.32;;;11.20;99.90;;;;;;5005925;28;20707;-74
2022/11/05 03:54:18;;;;;;;8.98;6.53;;;11.20;99.90;;;;;;5008392;28;20538;-74
2022/11/05 03:57:02;;;;;;;12.15;6.13;;;11.20;99.90;;;;;;5008047;28;20120;-74
2022/11/05 03:59:30;;;;;;;11.85;6.28;;;11.20;99.90;;;;;;5007781;28;20381;-74
2022/11/05 04:01:57;;;;;;;11.15;6.47;;;11.20;99.90;;;;;;5006967;28;20556;-74
2022/11/05 04:04:22;;;;;;;12.23;5.80;;;11.20;99.90;;;;;;5008353;28;20033;-72
2022/11/05 04:15:10;;;;;;;;;;;11.20;99.90;;;;;;5008627;28;20046;-72
2022/11/05 04:17:35;;;;;;;12.10;5.60;;;11.20;99.90;;;;;;5021597;28;19913;-72
2022/11/05 04:25:30;;;;;;;10.13;6.07;;;11.20;99.90;;;;;;5004798;28;20042;-72
2022/11/05 04:27:59;;;;;;;11.60;6.75;;;11.20;99.90;;;;;;5005040;28;20033;-72
2022/11/05 04:30:25;;;;;;;11.82;5.78;;;11.20;99.90;;;;;;5006383;28;20034;-72
2022/11/05 04:33:02;;;;;;;12.13;6.53;;;11.20;99.90;;;;;;5006600;28;20418;-72
2022/11/05 04:35:37;;;;;;;8.70;5.15;;;11.20;99.90;;;;;;5006835;28;20116;-71
2022/11/05 04:38:08;;;;;;;;;;;11.20;99.90;;;;;;5008136;28;20026;-72
2022/11/05 04:40:34;;;;;;;11.90;6.22;;;11.20;99.90;;;;;;5005350;28;19913;-73
2022/11/05 04:43:00;;;;;;;9.27;5.57;;;11.10;99.90;;;;;;5003577;28;20046;-72
2022/11/05 04:45:28;;;;;;;12.43;5.95;;;11.10;99.90;;;;;;5003837;28;20109;-72
2022/11/05 04:47:54;;;;;;;11.35;5.75;;;11.10;99.90;;;;;;5007377;28;20046;-72
2022/11/05 04:50:20;;;;;;;11.48;5.90;;;11.10;99.90;;;;;;5004560;28;20064;-72
2022/11/05 04:52:45;;;;;;;9.63;5.82;;;11.10;99.90;;;;;;5006539;28;20042;-72
2022/11/05 04:55:11;;;;;;;9.98;5.38;;;11.10;99.90;;;;;;5004365;28;20481;-72
2022/11/05 04:57:38;;;;;;;12.30;5.40;;;11.10;99.90;;;;;;5004613;28;20088;-73
2022/11/05 05:00:07;;;;;;;11.02;5.68;;;11.10;99.90;;;;;;5006080;28;20062;-73
2022/11/05 05:02:35;;;;;;;13.60;5.53;;;11.10;99.90;;;;;;5004437;28;20148;-72
2022/11/05 05:05:00;;;;;;;7.30;5.57;;;11.10;99.90;;;;;;5006774;28;20025;-73
2022/11/05 05:07:27;;;;;;;9.10;4.85;;;11.10;99.90;;;;;;5005167;28;20048;-73
2022/11/05 05:09:53;;;;;;;10.15;5.20;;;11.10;99.90;;;;;;5005544;28;20105;-73
2022/11/05 05:12:20;;;;;;;10.80;5.50;;;11.10;99.90;;;;;;5002888;28;20050;-73
2022/11/05 05:14:48;;;;;;;10.60;5.20;;;11.10;99.90;;;;;;5007175;28;20026;-74
2022/11/05 05:17:14;;;;;;;10.80;6.07;;;11.10;99.90;;;;;;5006287;28;20042;-73
2022/11/05 05:22:25;;;;;;;9.77;4.70;;;11.10;99.90;;;;;;5004554;28;20033;-73
2022/11/05 05:24:51;;;;;;;11.40;5.60;;;11.10;99.90;;;;;;5004948;28;20049;-74
2022/11/05 05:27:16;;;;;;;12.38;5.47;;;11.10;99.90;;;;;;5006675;28;20026;-73
2022/11/05 05:29:42;;;;;;;7.80;5.03;;;11.10;99.90;;;;;;5006116;28;20048;-73
2022/11/05 05:32:08;;;;;;;7.72;4.88;;;11.10;99.90;;;;;;5005026;28;20096;-73
2022/11/05 05:34:34;;;;;;;10.88;5.05;;;11.10;99.90;;;;;;5005478;28;20106;-73
2022/11/05 05:37:00;;;;;;;15.23;5.10;;;11.00;99.90;;;;;;5006357;28;20042;-73
2022/11/05 05:39:26;;;;;;;12.13;4.88;;;11.00;99.90;;;;;;5004283;28;20010;-74
2022/11/05 05:41:52;;;;;;;20.80;5.90;;;11.00;99.90;;;;;;5003031;28;20117;-73
2022/11/05 05:44:18;;;;;;;11.45;5.57;;;11.00;99.90;;;;;;5003020;28;20125;-74
2022/11/05 05:46:44;;;;;;;10.82;6.07;;;11.00;99.90;;;;;;5002882;28;21817;-73
2022/11/05 05:49:10;;;;;;;12.52;5.43;;;11.00;99.90;;;;;;5005830;28;20121;-73
2022/11/05 05:51:36;;;;;;;11.30;5.50;;;10.90;99.90;;;;;;5005027;28;20030;-73
2022/11/05 05:54:02;;;;;;;13.00;5.10;;;11.00;99.90;;;;;;5006784;28;20467;-73
2022/11/05 05:56:27;;;;;;;14.60;5.93;;;10.90;99.90;;;;;;5003010;28;20034;-73
2022/11/05 05:58:53;;;;;;;10.77;5.55;;;10.90;99.90;;;;;;5003505;28;20481;-73
2022/11/05 06:01:19;;;;;;;11.43;5.22;;;10.90;99.90;;;;;;5003058;28;20029;-73
2022/11/05 06:03:46;;;;;;;12.10;5.25;;;10.80;99.90;;;;;;5004311;28;20119;-74
2022/11/05 06:06:13;;;;;;;14.45;5.70;;;10.90;99.90;;;;;;5005351;28;20034;-73
2022/11/05 06:08:40;;;;;;;12.10;5.78;;;10.90;99.90;;;;;;5020456;28;20057;-72
2022/11/05 06:11:06;;;;;;;9.43;5.13;;;10.90;99.90;;;;;;5015853;28;20049;-73
2022/11/05 06:13:33;;;;;;;11.38;5.05;;;10.90;99.90;;;;;;5015831;28;20038;-73
2022/11/05 06:16:04;;;;;;;10.02;5.97;;;10.90;99.90;;;;;;5006721;28;20374;-73
2022/11/05 06:18:31;;;;;;;9.13;4.97;;;10.90;99.90;;;;;;5005677;28;20417;-75
2022/11/05 06:21:01;;;;;;;11.93;5.30;;;10.90;99.90;;;;;;5004289;28;20038;-69
2022/11/05 06:23:31;;;;;;;8.20;4.55;;;11.00;99.90;;;;;;5006870;28;20025;-75
2022/11/05 06:26:04;;;;;;;8.15;4.82;;;11.00;99.90;;;;;;5011998;28;20034;-73
2022/11/05 06:28:30;;;;;;;11.45;5.78;;;11.00;99.90;;;;;;5004795;28;20088;-70
2022/11/05 06:30:56;;;;;;;9.73;4.50;;;11.00;99.90;;;;;;5004710;28;20050;-69
2022/11/05 06:33:22;;;;;;;8.60;4.80;;;11.00;99.90;;;;;;5004163;28;20034;-71
2022/11/05 06:35:48;;;;;;;16.67;5.28;;;11.00;99.90;;;;;;5003792;28;20121;-72
2022/11/05 06:38:13;;;;;;;7.53;4.85;;;11.00;99.90;;;;;;5002321;28;20600;-70
2022/11/05 06:40:39;;;;;;;8.27;4.50;;;11.00;99.90;;;;;;5004603;28;20615;-72
2022/11/05 06:43:04;;;;;;;12.43;4.43;;;11.00;99.90;;;;;;5004212;28;20161;-69
2022/11/05 06:45:30;;;;;;;10.15;5.57;;;11.00;99.90;;;;;;5017840;28;20025;-70
2022/11/05 06:47:57;;;;;;;9.57;4.72;;;11.00;99.90;;;;;;5003428;28;20045;-70
2022/11/05 06:50:24;;;;;;;8.70;4.68;;;11.00;99.90;;;;;;5002435;28;20068;-68
2022/11/05 06:52:57;;;;;;;9.07;4.60;;;11.00;99.90;;;;;;5001479;28;20460;-70
2022/11/05 06:55:25;;;;;;;9.73;5.53;;;11.00;99.90;;;;;;5002558;28;20065;-70
2022/11/05 06:57:50;;;;;;;9.85;5.00;;;11.00;99.90;;;;;;5000673;28;20041;-69
2022/11/05 07:00:17;;;;;;;18.23;5.90;;;11.00;99.90;;;;;;5002894;28;20109;-69
2022/11/05 07:02:43;;;;;;;9.82;5.25;;;11.00;99.90;;;;;;5003166;28;20033;-70
2022/11/05 07:05:12;;;;;;;12.35;5.35;;;11.00;99.90;;;;;;5002299;28;20030;-71
2022/11/05 07:07:38;;;;;;;14.15;6.18;;;11.00;99.90;;;;;;5003440;28;20030;-70
2022/11/05 07:10:06;;;;;;;11.82;4.78;;;11.10;99.90;;;;;;5005649;28;20030;-70
2022/11/05 07:12:32;;;;;;;13.48;5.35;;;11.10;99.90;;;;;;5003277;28;20652;-70
2022/11/05 07:14:57;;;;;;;8.73;5.10;;;11.10;99.90;;;;;;5001649;28;20022;-70
2022/11/05 07:17:23;;;;;;;11.32;4.75;;;11.10;99.90;;;;;;5002792;28;20404;-73
2022/11/05 07:19:51;;;;;;;8.10;4.43;;;11.10;99.90;;;;;;5003142;28;20025;-71
2022/11/05 07:22:17;;;;;;;10.38;5.22;;;11.00;99.90;;;;;;5001775;28;20126;-72
2022/11/05 07:24:45;;;;;;;9.35;4.60;;;11.00;99.90;;;;;;5001308;28;20164;-71
2022/11/05 07:27:12;;;;;;;9.50;4.45;;;11.00;99.90;;;;;;5003759;28;20903;-71
2022/11/05 07:29:37;;;;;;;8.85;4.80;;;11.00;99.90;;;;;;5002286;28;20163;-71
2022/11/05 07:32:03;;;;;;;11.25;5.22;;;11.00;99.90;;;;;;5002189;28;20482;-72
2022/11/05 07:34:29;;;;;;;8.63;4.82;;;11.00;99.90;;;;;;5001380;28;20600;-71
2022/11/05 07:36:54;;;;;;;8.18;4.75;;;11.00;99.90;;;;;;5003433;28;20030;-71
2022/11/05 07:39:20;;;;;;;10.63;5.18;;;11.00;99.90;;;;;;5000918;28;20025;-71
2022/11/05 07:41:45;;;;;;;13.73;6.13;;;11.00;99.90;;;;;;5003557;28;20026;-71
2022/11/05 07:44:13;;;;;;;9.13;4.50;;;10.90;99.90;;;;;;5002975;28;20057;-71
2022/11/05 07:46:40;;;;;;;10.63;5.55;;;10.90;99.90;;;;;;5003454;28;20023;-71
2022/11/05 07:49:06;;;;;;;12.35;5.82;;;10.90;99.90;;;;;;5002293;28;20022;-71
2022/11/05 07:51:32;;;;;;;13.48;4.72;;;10.80;99.90;;;;;;5001373;28;20728;-71
2022/11/05 07:53:57;;;;;;;11.32;5.13;;;10.70;99.90;;;;;;5004578;28;20025;-71
2022/11/05 07:56:24;;;;;;;10.57;5.93;;;10.80;99.90;;;;;;5003108;28;20031;-71
2022/11/05 07:58:50;;;;;;;17.10;5.88;;;10.80;99.90;;;;;;5002275;28;20023;-71
2022/11/05 08:01:16;;;;;;;12.80;5.18;;;10.80;99.90;;;;;;5002846;28;20049;-71
2022/11/05 08:03:41;;;;;;;8.68;5.38;;;10.80;99.90;;;;;;5002719;28;20104;-71
2022/11/05 08:06:07;;;;;;;8.35;4.55;;;10.80;99.90;;;;;;5001845;28;20519;-71
2022/11/05 08:08:33;;;;;;;15.13;5.50;;;10.80;99.90;;;;;;5003134;28;20080;-71
2022/11/05 08:11:06;;;;;;;8.40;4.70;;;10.80;99.90;;;;;;5000646;28;20029;-72
2022/11/05 08:13:33;;;;;;;10.43;4.90;;;10.70;99.90;;;;;;5003948;28;20037;-73
2022/11/05 08:16:00;;;;;;;12.20;5.15;;;10.80;99.90;;;;;;5002011;28;20072;-72
2022/11/05 08:18:30;;;;;;;12.38;5.22;;;10.80;99.90;;;;;;5006975;28;20088;-70
2022/11/05 08:21:00;;;;;;;14.45;6.07;;;10.70;99.90;;;;;;5004871;28;20109;-71
2022/11/05 08:23:27;;;;;;;12.38;6.55;;;10.70;99.90;;;;;;5004191;28;20048;-70
2022/11/05 08:25:54;;;;;;;14.93;6.07;;;10.70;99.90;;;;;;5003868;28;20378;-70
2022/11/05 08:28:21;;;;;;;12.85;5.72;;;10.70;99.90;;;;;;5007562;28;20040;-70
2022/11/05 08:30:53;;;;;;;9.68;5.35;;;10.70;99.90;;;;;;5004375;28;20165;-70
2022/11/05 08:33:21;;;;;;;9.10;5.70;;;10.70;99.90;;;;;;5005741;28;20034;-70
2022/11/05 08:35:47;;;;;;;11.50;5.00;;;10.70;99.90;;;;;;5005877;28;20021;-68
2022/11/05 08:38:15;;;;;;;11.77;5.78;;;10.70;99.90;;;;;;5005188;28;20029;-69
2022/11/05 08:40:42;;;;;;;13.63;6.10;;;10.70;99.90;;;;;;5005256;28;20034;-68
2022/11/05 08:43:10;;;;;;;11.15;6.03;;;10.70;99.90;;;;;;5005015;28;20524;-68
2022/11/05 08:45:36;;;;;;;11.75;5.80;;;10.70;99.90;;;;;;5006253;28;20377;-68
2022/11/05 08:48:14;;;;;;;11.93;6.10;;;10.70;99.90;;;;;;5005080;28;20038;-70
2022/11/05 08:50:40;;;;;;;10.20;5.72;;;10.70;99.90;;;;;;5005758;28;20033;-67
2022/11/05 08:53:06;;;;;;;12.70;5.78;;;10.70;99.90;;;;;;5004536;28;20029;-69
2022/11/05 08:55:32;;;;;;;11.10;5.72;;;10.70;99.90;;;;;;5005443;28;20030;-67
2022/11/05 08:58:03;;;;;;;13.95;6.32;;;10.70;99.90;;;;;;5004804;28;20061;-68
2022/11/05 09:00:30;;;;;;;11.13;6.00;;;10.70;99.90;;;;;;5002810;28;20088;-68
2022/11/05 09:03:00;;;;;;;11.45;6.18;;;10.80;99.90;;;;;;5005412;28;20033;-67
2022/11/05 09:05:27;;;;;;;11.73;4.93;;;10.80;99.90;;;;;;5018696;28;20557;-68
2022/11/05 09:07:52;;;;;;;13.82;5.97;;;10.90;99.90;;;;;;5004058;28;20515;-68
2022/11/05 09:10:18;;;;;;;11.70;6.28;;;10.90;99.90;;;;;;5001574;28;20034;-67
2022/11/05 09:12:44;;;;;;;12.15;5.55;;;10.90;99.90;;;;;;5003552;28;20046;-66
2022/11/05 09:15:10;;;;;;;15.93;5.47;;;11.00;99.90;;;;;;5003987;28;20064;-67
2022/11/05 09:17:36;;;;;;;14.18;6.45;;;11.00;99.90;;;;;;5007403;28;20026;-67
2022/11/05 09:20:03;;;;;;;10.73;5.45;;;11.00;99.90;;;;;;5004855;28;20027;-68
2022/11/05 09:22:29;;;;;;;11.13;4.80;;;11.10;99.90;;;;;;5004107;28;20083;-68
2022/11/05 09:24:55;;;;;;;11.25;5.15;;;11.10;99.90;;;;;;5005678;28;20026;-68
2022/11/05 09:27:21;;;;;;;8.20;4.80;;;11.10;99.90;;;;;;5007301;28;20025;-68
2022/11/05 09:29:47;;;;;;;9.88;4.72;;;11.20;99.90;;;;;;5002357;28;21715;-66
2022/11/05 09:32:17;;;;;;;13.32;5.57;;;11.20;99.90;;;;;;5003996;28;20033;-67
2022/11/05 09:34:43;;;;;;;11.85;4.80;;;11.20;99.90;;;;;;5004304;28;20041;-68
2022/11/05 09:37:09;;;;;;;14.95;4.53;;;11.30;99.90;;;;;;5004214;28;20045;-69
2022/11/05 09:39:35;;;;;;;10.35;4.72;;;11.40;99.90;;;;;;5003353;28;20116;-72
2022/11/05 09:42:07;;;;;;;11.18;4.65;;;11.40;99.90;;;;;;5003251;28;20150;-73
2022/11/05 09:45:07;;;;;;;9.45;4.15;;;11.50;99.90;;;;;;5001568;28;20509;-72
2022/11/05 09:47:38;;;;;;;12.55;4.38;;;11.50;99.90;;;;;;5002884;28;20431;-71
2022/11/05 09:50:13;;;;;;;11.93;4.90;;;11.50;99.90;;;;;;5005668;28;20543;-71
2022/11/05 09:52:39;;;;;;;9.27;5.00;;;11.60;99.90;;;;;;5003359;28;20099;-71
2022/11/05 09:55:17;;;;;;;11.30;4.70;;;11.60;99.90;;;;;;5004824;28;20029;-69
2022/11/05 09:58:19;;;;;;;9.63;4.60;;;11.60;99.90;;;;;;5004067;28;20057;-68
2022/11/05 10:00:49;;;;;;;10.18;3.92;;;11.70;99.90;;;;;;5009084;28;20183;-71
2022/11/05 10:03:20;;;;;;;13.25;3.92;;;11.70;99.90;;;;;;5004941;28;20409;-69
2022/11/05 10:05:48;;;;;;;8.18;3.80;;;11.80;99.90;;;;;;5002700;28;20482;-68
2022/11/05 10:08:24;;;;;;;7.70;4.00;;;11.80;99.90;;;;;;5002509;28;20042;-68
2022/11/05 10:10:54;;;;;;;10.82;4.05;;;11.90;99.90;;;;;;5004557;28;20034;-68
2022/11/05 10:13:39;;;;;;;7.88;4.20;;;11.90;99.90;;;;;;5007637;28;20046;-68
2022/11/05 10:16:27;;;;;;;10.20;4.50;;;11.90;99.90;;;;;;5003212;28;20045;-67
2022/11/05 10:18:59;;;;;;;8.50;3.30;;;11.90;99.90;;;;;;5003550;28;20359;-67
2022/11/05 10:21:24;;;;;;;9.27;4.10;;;12.00;99.90;;;;;;5004261;28;20038;-68
2022/11/05 10:23:50;;;;;;;7.10;3.30;;;12.00;99.90;;;;;;5003976;28;20042;-68
2022/11/05 10:26:21;;;;;;;7.07;3.35;;;12.10;99.90;;;;;;5002356;28;20023;-69
2022/11/05 10:28:47;;;;;;;19.02;5.05;;;12.10;99.90;;;;;;5003556;28;20030;-68
2022/11/05 10:31:16;;;;;;;9.43;3.90;;;12.10;99.90;;;;;;5002121;28;20493;-69
2022/11/05 10:33:57;;;;;;;8.48;3.60;;;12.20;99.90;;;;;;5005734;28;20046;-67
2022/11/05 10:36:23;;;;;;;13.32;3.10;;;12.20;99.90;;;;;;5003378;28;20021;-67
2022/11/05 10:38:49;;;;;;;15.52;3.90;;;12.20;99.90;;;;;;5004381;28;20018;-68
2022/11/05 10:41:27;;;;;;;11.43;3.40;;;12.20;99.90;;;;;;5004920;28;20031;-67
2022/11/05 10:44:22;;;;;;;9.18;3.47;;;12.30;99.90;;;;;;5004123;28;20049;-67
2022/11/05 10:47:14;;;;;;;9.85;3.55;;;12.30;99.90;;;;;;5002106;28;20185;-68
2022/11/05 10:49:44;;;;;;;8.20;3.05;;;12.40;99.90;;;;;;5001761;28;20060;-67
2022/11/05 10:52:23;;;;;;;9.45;2.80;;;12.40;99.90;;;;;;5005084;28;20053;-67
2022/11/05 10:54:52;;;;;;;7.35;3.13;;;12.50;99.90;;;;;;5002507;28;20053;-67
2022/11/05 10:57:37;;;;;;;6.05;2.78;;;12.50;99.90;;;;;;5003828;28;20037;-66
2022/11/05 11:00:15;;;;;;;;;;;12.50;99.90;;;;;;5002115;28;20417;-67
2022/11/05 11:02:52;;;;;;;6.15;2.42;;;12.60;99.90;;;;;;5003101;28;19917;-67
2022/11/05 11:05:31;;;;;;;9.65;3.10;;;12.60;99.90;;;;;;5002929;28;20041;-67
2022/11/05 11:08:09;;;;;;;8.70;4.22;;;12.60;99.90;;;;;;5003333;28;20036;-67
2022/11/05 11:10:56;;;;;;;5.40;2.53;;;12.70;99.90;;;;;;5001978;28;20034;-67
2022/11/05 11:13:56;;;;;;;10.00;2.85;;;12.70;99.90;;;;;;5002818;28;20042;-66
2022/11/05 11:16:23;;;;;;;10.63;2.80;;;12.80;99.90;;;;;;5003636;28;20033;-65
2022/11/05 11:19:01;;;;;;;7.38;3.00;;;12.80;99.90;;;;;;5002360;28;20070;-66
2022/11/05 11:21:29;;;;;;;6.88;2.72;;;12.90;99.90;;;;;;5002703;28;20424;-66
2022/11/05 11:24:01;;;;;;;8.75;3.05;;;12.90;99.70;;;;;;5001322;28;20037;-67
2022/11/05 11:26:34;;;;;;;6.65;2.30;;;12.90;99.60;;;;;;5003803;28;20065;-66
2022/11/05 11:29:04;;;;;;;6.63;2.25;;;13.00;99.50;;;;;;5002004;28;20022;-67
2022/11/05 11:31:31;;;;;;;5.70;2.78;;;13.00;99.40;;;;;;5002004;28;20034;-67
2022/11/05 11:34:15;;;;;;;10.25;2.58;;;13.10;99.40;;;;;;5001265;28;20037;-67
2022/11/05 11:36:49;;;;;;;7.90;3.00;;;13.10;99.20;;;;;;4999906;28;20108;-67
2022/11/05 11:39:20;;;;;;;9.00;2.28;;;13.20;99.20;;;;;;5001397;28;20086;-67
2022/11/05 11:41:52;;;;;;;7.18;3.17;;;13.20;99.10;;;;;;5001558;28;20040;-67
2022/11/05 11:44:25;;;;;;;4.53;2.10;;;13.20;98.70;;;;;;5001690;28;20050;-66
2022/11/05 11:47:01;;;;;;;7.43;2.22;;;13.30;98.80;;;;;;5002239;28;20080;-67
2022/11/05 11:49:31;;;;;;;5.72;2.70;;;13.30;98.60;;;;;;5003599;28;20032;-66
2022/11/05 11:52:08;;;;;;;12.20;3.22;;;13.30;98.60;;;;;;5002516;28;20045;-66
2022/11/05 11:54:34;;;;;;;6.43;2.50;;;13.40;98.50;;;;;;5005819;28;20041;-68
2022/11/05 11:57:00;;;;;;;4.68;2.10;;;13.40;98.50;;;;;;5005829;28;20029;-68
2022/11/05 11:59:28;;;;;;;8.68;2.67;;;13.50;98.40;;;;;;5006287;28;20036;-68
2022/11/05 12:02:12;;;;;;;9.60;3.30;;;13.50;98.30;;;;;;5005822;28;20489;-68
2022/11/05 12:05:17;;;;;;;6.82;2.33;;;13.60;98.20;;;;;;5006956;28;20045;-67
2022/11/05 12:07:52;;;;;;;6.25;2.00;;;13.70;97.70;;;;;;5002418;28;20433;-67
2022/11/05 12:10:46;;;;;;;6.90;2.45;;;13.70;97.80;;;;;;5005001;28;20154;-68
2022/11/05 12:13:17;;;;;;;7.43;2.65;;;13.80;97.50;;;;;;5007586;28;20030;-66
2022/11/05 12:15:56;;;;;;;9.70;2.80;;;13.80;97.50;;;;;;5003334;28;20121;-66
2022/11/05 12:19:04;;;;;;;4.13;2.17;;;13.90;97.20;;;;;;5006080;28;20054;-66
2022/11/05 12:21:53;;;;;;;12.93;2.33;;;13.90;97.10;;;;;;5022847;28;20038;-66
2022/11/05 12:24:39;;;;;;;8.23;2.45;;;13.90;97.10;;;;;;5005354;28;20029;-69
2022/11/05 12:27:21;;;;;;;5.95;2.30;;;14.00;97.00;;;;;;5006877;28;20063;-67
2022/11/05 12:29:52;;;;;;;10.18;3.17;;;14.00;97.00;;;;;;5005316;28;20113;-67
2022/11/05 12:32:20;;;;;;;5.97;2.70;;;14.00;96.70;;;;;;5004383;28;20064;-67
2022/11/05 12:34:49;;;;;;;4.68;2.05;;;14.00;96.30;;;;;;5004698;28;20022;-67
2022/11/05 12:37:52;;;;;;;6.40;2.05;;;14.00;96.10;;;;;;5005075;28;20056;-67
2022/11/05 12:40:30;;;;;;;11.57;2.45;;;14.00;96.20;;;;;;5005147;28;20069;-68
2022/11/05 12:43:33;;;;;;;6.00;3.00;;;14.00;96.10;;;;;;5005343;28;20520;-68
2022/11/05 12:46:37;;;;;;;6.45;2.05;;;14.00;96.20;;;;;;5005591;28;20176;-67
2022/11/05 12:49:39;;;;;;;4.15;1.80;;;14.00;95.80;;;;;;5004921;28;20026;-67
2022/11/05 12:52:39;;;;;;;3.80;1.70;;;14.00;95.70;;;;;;5020157;28;20041;-66
2022/11/05 12:55:13;;;;;;;6.80;2.50;;;13.90;95.60;;;;;;5007039;28;20148;-68
2022/11/05 12:57:42;;;;;;;8.18;2.35;;;13.90;95.60;;;;;;5006152;28;20034;-67
2022/11/05 13:00:21;;;;;;;7.30;2.40;;;13.90;95.70;;;;;;5007453;28;20046;-68
2022/11/05 13:02:52;;;;;;;8.15;2.50;;;13.90;95.60;;;;;;5006359;28;20032;-68
2022/11/05 13:05:48;;;;;;;4.10;2.17;;;13.90;95.80;;;;;;5004704;28;20041;-67
2022/11/05 13:08:26;;;;;;;4.90;2.42;;;13.90;95.90;;;;;;5004967;28;20038;-67
2022/11/05 13:11:02;;;;;;;8.63;2.63;;;14.00;95.90;;;;;;5004970;28;20038;-67
2022/11/05 13:13:27;;;;;;;9.55;2.80;;;13.90;95.60;;;;;;5006269;28;20061;-67
2022/11/05 13:15:58;;;;;;;5.40;2.13;;;14.00;95.80;;;;;;5005207;28;20017;-67
2022/11/05 13:18:41;;;;;;;5.68;2.03;;;14.10;95.80;;;;;;5007850;28;20121;-67
2022/11/05 13:21:09;;;;;;;6.28;2.10;;;14.20;95.70;;;;;;5003579;28;20121;-67
2022/11/05 13:24:01;;;;;;;4.82;2.15;;;14.20;95.50;;;;;;5005445;28;20065;-67
2022/11/05 13:26:46;;;;;;;4.78;2.67;;;14.40;95.70;;;;;;4995244;28;20137;-68
2022/11/05 13:29:45;;;;;;;6.50;2.03;;;14.40;95.60;;;;;;5005569;28;20030;-67
2022/11/05 13:32:31;;;;;;;6.95;2.05;;;14.50;95.60;;;;;;5005982;28;20162;-66
2022/11/05 13:35:03;;;;;;;7.55;2.70;;;14.60;95.60;;;;;;5003876;28;20022;-67
2022/11/05 13:40:41;;;;;;;7.55;2.95;;;14.70;95.20;;;;;;5003922;28;20060;-67
2022/11/05 13:43:35;;;;;;;11.02;2.35;;;14.70;95.30;;;;;;5004700;28;20062;-67
2022/11/05 13:46:12;;;;;;;6.25;2.33;;;14.80;95.20;;;;;;5003364;28;20096;-67
2022/11/05 13:49:17;;;;;;;6.55;2.33;;;14.80;95.20;;;;;;5005323;28;20034;-67
2022/11/05 13:52:20;;;;;;;5.82;2.08;;;14.80;95.30;;;;;;5005967;28;20120;-67